sensor_id;sensor_type;location;lat;lon;timestamp;P1;durP1;ratioP1;P2;durP2;ratioP2
7969;SDS011;4030;52.362;9.206;2023-04-16T00:00:04;7.40;;;6.70;;
7969;SDS011;4030;52.362;9.206;2023-04-16T00:02:31;7.72;;;7.03;;
7969;SDS011;4030;52.362;9.206;2023-04-16T00:04:57;8.05;;;7.25;;
7969;SDS011;4030;52.362;9.206;2023-04-16T00:07:23;7.93;;;7.22;;
7969;SDS011;4030;52.362;9.206;2023-04-16T00:09:49;7.80;;;7.10;;
7969;SDS011;4030;52.362;9.206;2023-04-16T00:12:15;8.80;;;7.03;;
7969;SDS011;4030;52.362;9.206;2023-04-16T00:14:41;7.38;;;6.78;;
7969;SDS011;4030;52.362;9.206;2023-04-16T00:17:07;7.63;;;6.93;;
7969;SDS011;4030;52.362;9.206;2023-04-16T00:19:34;8.25;;;7.55;;
7969;SDS011;4030;52.362;9.206;2023-04-16T00:22:00;7.78;;;7.07;;
7969;SDS011;4030;52.362;9.206;2023-04-16T00:24:26;8.15;;;7.45;;
7969;SDS011;4030;52.362;9.206;2023-04-16T00:26:52;8.50;;;7.70;;
7969;SDS011;4030;52.362;9.206;2023-04-16T00:29:18;8.40;;;7.60;;
7969;SDS011;4030;52.362;9.206;2023-04-16T00:31:44;8.70;;;7.90;;
7969;SDS011;4030;52.362;9.206;2023-04-16T00:34:10;8.05;;;7.35;;
7969;SDS011;4030;52.362;9.206;2023-04-16T00:36:36;7.70;;;7.10;;
7969;SDS011;4030;52.362;9.206;2023-04-16T00:39:02;9.07;;;8.18;;
7969;SDS011;4030;52.362;9.206;2023-04-16T00:41:28;8.82;;;8.02;;
7969;SDS011;4030;52.362;9.206;2023-04-16T00:43:54;8.57;;;7.78;;
7969;SDS011;4030;52.362;9.206;2023-04-16T00:46:23;8.20;;;7.40;;
7969;SDS011;4030;52.362;9.206;2023-04-16T00:48:50;9.18;;;8.27;;
7969;SDS011;4030;52.362;9.206;2023-04-16T00:51:18;8.48;;;7.75;;
7969;SDS011;4030;52.362;9.206;2023-04-16T00:53:45;8.18;;;7.47;;
7969;SDS011;4030;52.362;9.206;2023-04-16T00:56:11;8.27;;;7.47;;
7969;SDS011;4030;52.362;9.206;2023-04-16T00:58:37;8.60;;;7.80;;
7969;SDS011;4030;52.362;9.206;2023-04-16T01:01:03;8.07;;;7.30;;
7969;SDS011;4030;52.362;9.206;2023-04-16T01:03:41;8.27;;;7.57;;
7969;SDS011;4030;52.362;9.206;2023-04-16T01:06:10;7.75;;;7.05;;
7969;SDS011;4030;52.362;9.206;2023-04-16T01:08:36;7.78;;;7.07;;
7969;SDS011;4030;52.362;9.206;2023-04-16T01:11:02;8.68;;;7.88;;
7969;SDS011;4030;52.362;9.206;2023-04-16T01:13:28;8.02;;;7.28;;
7969;SDS011;4030;52.362;9.206;2023-04-16T01:15:55;7.97;;;7.20;;
7969;SDS011;4030;52.362;9.206;2023-04-16T01:18:21;8.05;;;7.30;;
7969;SDS011;4030;52.362;9.206;2023-04-16T01:20:48;8.30;;;7.60;;
7969;SDS011;4030;52.362;9.206;2023-04-16T01:23:15;8.38;;;7.35;;
7969;SDS011;4030;52.362;9.206;2023-04-16T01:25:42;8.48;;;7.60;;
7969;SDS011;4030;52.362;9.206;2023-04-16T01:28:08;9.13;;;7.75;;
7969;SDS011;4030;52.362;9.206;2023-04-16T01:30:34;8.55;;;7.75;;
7969;SDS011;4030;52.362;9.206;2023-04-16T01:33:00;8.23;;;7.43;;
7969;SDS011;4030;52.362;9.206;2023-04-16T01:35:26;7.63;;;6.93;;
7969;SDS011;4030;52.362;9.206;2023-04-16T01:37:52;8.00;;;7.30;;
7969;SDS011;4030;52.362;9.206;2023-04-16T01:40:18;8.35;;;7.65;;
7969;SDS011;4030;52.362;9.206;2023-04-16T01:42:44;8.07;;;7.28;;
7969;SDS011;4030;52.362;9.206;2023-04-16T01:45:10;7.95;;;7.15;;
7969;SDS011;4030;52.362;9.206;2023-04-16T01:47:36;7.70;;;7.00;;
7969;SDS011;4030;52.362;9.206;2023-04-16T01:50:02;7.82;;;7.13;;
7969;SDS011;4030;52.362;9.206;2023-04-16T01:52:29;8.15;;;7.45;;
7969;SDS011;4030;52.362;9.206;2023-04-16T01:54:55;7.97;;;7.28;;
7969;SDS011;4030;52.362;9.206;2023-04-16T01:57:21;8.13;;;7.43;;
7969;SDS011;4030;52.362;9.206;2023-04-16T01:59:46;8.00;;;7.30;;
7969;SDS011;4030;52.362;9.206;2023-04-16T02:02:13;8.02;;;7.32;;
7969;SDS011;4030;52.362;9.206;2023-04-16T02:04:40;8.35;;;7.55;;
7969;SDS011;4030;52.362;9.206;2023-04-16T02:07:08;8.35;;;7.25;;
7969;SDS011;4030;52.362;9.206;2023-04-16T02:09:35;8.23;;;7.43;;
7969;SDS011;4030;52.362;9.206;2023-04-16T02:12:03;9.75;;;7.60;;
7969;SDS011;4030;52.362;9.206;2023-04-16T02:14:32;7.70;;;7.00;;
7969;SDS011;4030;52.362;9.206;2023-04-16T02:16:58;8.45;;;7.65;;
7969;SDS011;4030;52.362;9.206;2023-04-16T02:19:24;7.60;;;6.93;;
7969;SDS011;4030;52.362;9.206;2023-04-16T02:21:51;8.02;;;7.32;;
7969;SDS011;4030;52.362;9.206;2023-04-16T02:24:17;7.82;;;7.13;;
7969;SDS011;4030;52.362;9.206;2023-04-16T02:26:43;7.72;;;7.03;;
7969;SDS011;4030;52.362;9.206;2023-04-16T02:29:09;7.93;;;7.13;;
7969;SDS011;4030;52.362;9.206;2023-04-16T02:31:35;8.10;;;7.30;;
7969;SDS011;4030;52.362;9.206;2023-04-16T02:34:01;7.75;;;6.85;;
7969;SDS011;4030;52.362;9.206;2023-04-16T02:36:27;7.63;;;6.93;;
7969;SDS011;4030;52.362;9.206;2023-04-16T02:38:53;7.63;;;6.93;;
7969;SDS011;4030;52.362;9.206;2023-04-16T02:41:19;7.97;;;7.18;;
7969;SDS011;4030;52.362;9.206;2023-04-16T02:43:45;8.32;;;7.55;;
7969;SDS011;4030;52.362;9.206;2023-04-16T02:46:11;8.50;;;7.70;;
7969;SDS011;4030;52.362;9.206;2023-04-16T02:48:38;7.85;;;7.15;;
7969;SDS011;4030;52.362;9.206;2023-04-16T02:51:04;7.72;;;7.03;;
7969;SDS011;4030;52.362;9.206;2023-04-16T02:53:29;7.85;;;7.15;;
7969;SDS011;4030;52.362;9.206;2023-04-16T02:55:56;8.00;;;7.22;;
7969;SDS011;4030;52.362;9.206;2023-04-16T02:58:22;8.95;;;7.72;;
7969;SDS011;4030;52.362;9.206;2023-04-16T03:00:50;7.65;;;6.95;;
7969;SDS011;4030;52.362;9.206;2023-04-16T03:03:16;8.15;;;7.45;;
7969;SDS011;4030;52.362;9.206;2023-04-16T03:05:42;8.60;;;7.80;;
7969;SDS011;4030;52.362;9.206;2023-04-16T03:08:08;8.73;;;7.93;;
7969;SDS011;4030;52.362;9.206;2023-04-16T03:10:34;8.27;;;7.47;;
7969;SDS011;4030;52.362;9.206;2023-04-16T03:13:00;8.77;;;7.88;;
7969;SDS011;4030;52.362;9.206;2023-04-16T03:15:26;8.20;;;7.35;;
7969;SDS011;4030;52.362;9.206;2023-04-16T03:17:52;8.15;;;7.45;;
7969;SDS011;4030;52.362;9.206;2023-04-16T03:20:18;9.20;;;8.30;;
7969;SDS011;4030;52.362;9.206;2023-04-16T03:22:45;10.70;;;8.25;;
7969;SDS011;4030;52.362;9.206;2023-04-16T03:25:11;9.00;;;8.10;;
7969;SDS011;4030;52.362;9.206;2023-04-16T03:27:37;8.70;;;7.80;;
7969;SDS011;4030;52.362;9.206;2023-04-16T03:30:04;9.68;;;8.68;;
7969;SDS011;4030;52.362;9.206;2023-04-16T03:32:31;9.55;;;8.52;;
7969;SDS011;4030;52.362;9.206;2023-04-16T03:34:57;9.93;;;8.90;;
7969;SDS011;4030;52.362;9.206;2023-04-16T03:37:23;9.52;;;8.63;;
7969;SDS011;4030;52.362;9.206;2023-04-16T03:39:49;8.93;;;8.02;;
7969;SDS011;4030;52.362;9.206;2023-04-16T03:42:15;9.00;;;8.07;;
7969;SDS011;4030;52.362;9.206;2023-04-16T03:44:41;9.73;;;8.82;;
7969;SDS011;4030;52.362;9.206;2023-04-16T03:47:07;9.82;;;8.82;;
7969;SDS011;4030;52.362;9.206;2023-04-16T03:49:33;9.38;;;8.48;;
7969;SDS011;4030;52.362;9.206;2023-04-16T03:51:59;9.50;;;8.50;;
7969;SDS011;4030;52.362;9.206;2023-04-16T03:54:25;9.98;;;8.98;;
7969;SDS011;4030;52.362;9.206;2023-04-16T03:56:51;9.18;;;8.27;;
7969;SDS011;4030;52.362;9.206;2023-04-16T03:59:17;9.77;;;8.77;;
7969;SDS011;4030;52.362;9.206;2023-04-16T04:01:43;9.48;;;8.48;;
7969;SDS011;4030;52.362;9.206;2023-04-16T04:04:09;9.23;;;8.40;;
7969;SDS011;4030;52.362;9.206;2023-04-16T04:06:35;10.20;;;8.75;;
7969;SDS011;4030;52.362;9.206;2023-04-16T04:09:01;9.35;;;8.45;;
7969;SDS011;4030;52.362;9.206;2023-04-16T04:11:27;10.38;;;9.38;;
7969;SDS011;4030;52.362;9.206;2023-04-16T04:13:53;10.15;;;9.15;;
7969;SDS011;4030;52.362;9.206;2023-04-16T04:16:19;10.05;;;9.13;;
7969;SDS011;4030;52.362;9.206;2023-04-16T04:18:46;10.80;;;9.88;;
7969;SDS011;4030;52.362;9.206;2023-04-16T04:21:12;10.10;;;9.10;;
7969;SDS011;4030;52.362;9.206;2023-04-16T04:23:38;10.57;;;9.52;;
7969;SDS011;4030;52.362;9.206;2023-04-16T04:26:05;11.10;;;10.00;;
7969;SDS011;4030;52.362;9.206;2023-04-16T04:28:31;10.63;;;9.57;;
7969;SDS011;4030;52.362;9.206;2023-04-16T04:30:57;10.77;;;9.68;;
7969;SDS011;4030;52.362;9.206;2023-04-16T04:33:26;11.05;;;9.98;;
7969;SDS011;4030;52.362;9.206;2023-04-16T04:35:53;10.65;;;9.65;;
7969;SDS011;4030;52.362;9.206;2023-04-16T04:38:18;10.60;;;9.55;;
7969;SDS011;4030;52.362;9.206;2023-04-16T04:40:46;11.00;;;9.90;;
7969;SDS011;4030;52.362;9.206;2023-04-16T04:43:12;10.93;;;9.82;;
7969;SDS011;4030;52.362;9.206;2023-04-16T04:45:39;11.13;;;9.93;;
7969;SDS011;4030;52.362;9.206;2023-04-16T04:48:05;11.30;;;10.20;;
7969;SDS011;4030;52.362;9.206;2023-04-16T04:50:30;11.00;;;9.90;;
7969;SDS011;4030;52.362;9.206;2023-04-16T04:52:56;11.13;;;10.00;;
7969;SDS011;4030;52.362;9.206;2023-04-16T04:55:22;11.32;;;10.23;;
7969;SDS011;4030;52.362;9.206;2023-04-16T04:57:49;11.57;;;10.35;;
7969;SDS011;4030;52.362;9.206;2023-04-16T05:00:15;11.10;;;10.10;;
7969;SDS011;4030;52.362;9.206;2023-04-16T05:02:41;11.23;;;10.02;;
7969;SDS011;4030;52.362;9.206;2023-04-16T05:05:07;12.18;;;10.88;;
7969;SDS011;4030;52.362;9.206;2023-04-16T05:07:33;11.52;;;10.50;;
7969;SDS011;4030;52.362;9.206;2023-04-16T05:09:59;10.88;;;9.80;;
7969;SDS011;4030;52.362;9.206;2023-04-16T05:12:25;10.82;;;9.77;;
7969;SDS011;4030;52.362;9.206;2023-04-16T05:14:51;11.63;;;10.43;;
7969;SDS011;4030;52.362;9.206;2023-04-16T05:17:17;11.05;;;9.95;;
7969;SDS011;4030;52.362;9.206;2023-04-16T05:19:43;12.20;;;11.00;;
7969;SDS011;4030;52.362;9.206;2023-04-16T05:22:09;10.95;;;9.93;;
7969;SDS011;4030;52.362;9.206;2023-04-16T05:24:36;11.77;;;10.68;;
7969;SDS011;4030;52.362;9.206;2023-04-16T05:27:02;11.65;;;10.48;;
7969;SDS011;4030;52.362;9.206;2023-04-16T05:29:27;11.07;;;9.98;;
7969;SDS011;4030;52.362;9.206;2023-04-16T05:31:53;10.73;;;9.73;;
7969;SDS011;4030;52.362;9.206;2023-04-16T05:34:19;11.07;;;9.98;;
7969;SDS011;4030;52.362;9.206;2023-04-16T05:36:45;11.25;;;10.15;;
7969;SDS011;4030;52.362;9.206;2023-04-16T05:39:11;11.73;;;10.57;;
7969;SDS011;4030;52.362;9.206;2023-04-16T05:41:38;11.40;;;10.30;;
7969;SDS011;4030;52.362;9.206;2023-04-16T05:44:04;10.95;;;9.85;;
7969;SDS011;4030;52.362;9.206;2023-04-16T05:46:30;10.95;;;9.85;;
7969;SDS011;4030;52.362;9.206;2023-04-16T05:48:56;12.63;;;11.43;;
7969;SDS011;4030;52.362;9.206;2023-04-16T05:51:22;12.45;;;10.43;;
7969;SDS011;4030;52.362;9.206;2023-04-16T05:53:50;12.18;;;10.88;;
7969;SDS011;4030;52.362;9.206;2023-04-16T05:56:15;11.25;;;10.23;;
7969;SDS011;4030;52.362;9.206;2023-04-16T05:58:41;11.95;;;10.75;;
7969;SDS011;4030;52.362;9.206;2023-04-16T06:01:06;13.50;;;10.38;;
7969;SDS011;4030;52.362;9.206;2023-04-16T06:03:32;11.57;;;10.48;;
7969;SDS011;4030;52.362;9.206;2023-04-16T06:05:58;12.20;;;10.55;;
7969;SDS011;4030;52.362;9.206;2023-04-16T06:08:24;12.30;;;11.10;;
7969;SDS011;4030;52.362;9.206;2023-04-16T06:10:50;12.40;;;11.20;;
7969;SDS011;4030;52.362;9.206;2023-04-16T06:13:17;11.88;;;10.70;;
7969;SDS011;4030;52.362;9.206;2023-04-16T06:15:43;11.40;;;10.20;;
7969;SDS011;4030;52.362;9.206;2023-04-16T06:18:09;11.52;;;10.38;;
7969;SDS011;4030;52.362;9.206;2023-04-16T06:20:35;11.13;;;10.13;;
7969;SDS011;4030;52.362;9.206;2023-04-16T06:23:01;11.32;;;10.13;;
7969;SDS011;4030;52.362;9.206;2023-04-16T06:25:27;11.88;;;10.68;;
7969;SDS011;4030;52.362;9.206;2023-04-16T06:27:53;12.23;;;10.95;;
7969;SDS011;4030;52.362;9.206;2023-04-16T06:30:19;11.32;;;10.23;;
7969;SDS011;4030;52.362;9.206;2023-04-16T06:32:45;11.52;;;10.43;;
7969;SDS011;4030;52.362;9.206;2023-04-16T06:35:11;11.82;;;10.70;;
7969;SDS011;4030;52.362;9.206;2023-04-16T06:37:37;11.50;;;10.40;;
7969;SDS011;4030;52.362;9.206;2023-04-16T06:40:03;11.68;;;10.55;;
7969;SDS011;4030;52.362;9.206;2023-04-16T06:42:30;11.07;;;9.98;;
7969;SDS011;4030;52.362;9.206;2023-04-16T06:44:55;10.65;;;9.65;;
7969;SDS011;4030;52.362;9.206;2023-04-16T06:47:21;11.10;;;9.80;;
7969;SDS011;4030;52.362;9.206;2023-04-16T06:49:47;11.10;;;10.00;;
7969;SDS011;4030;52.362;9.206;2023-04-16T06:52:13;11.00;;;9.88;;
7969;SDS011;4030;52.362;9.206;2023-04-16T06:54:40;10.75;;;9.75;;
7969;SDS011;4030;52.362;9.206;2023-04-16T06:57:06;10.40;;;9.30;;
7969;SDS011;4030;52.362;9.206;2023-04-16T06:59:32;11.82;;;9.82;;
7969;SDS011;4030;52.362;9.206;2023-04-16T07:01:58;10.60;;;9.50;;
7969;SDS011;4030;52.362;9.206;2023-04-16T07:04:24;10.32;;;9.23;;
7969;SDS011;4030;52.362;9.206;2023-04-16T07:06:50;11.45;;;9.38;;
7969;SDS011;4030;52.362;9.206;2023-04-16T07:09:16;10.15;;;8.85;;
7969;SDS011;4030;52.362;9.206;2023-04-16T07:11:42;10.50;;;9.50;;
7969;SDS011;4030;52.362;9.206;2023-04-16T07:14:08;10.38;;;9.38;;
7969;SDS011;4030;52.362;9.206;2023-04-16T07:16:34;10.15;;;9.25;;
7969;SDS011;4030;52.362;9.206;2023-04-16T07:19:01;9.50;;;8.60;;
7969;SDS011;4030;52.362;9.206;2023-04-16T07:21:27;9.82;;;8.85;;
7969;SDS011;4030;52.362;9.206;2023-04-16T07:23:53;9.73;;;8.82;;
7969;SDS011;4030;52.362;9.206;2023-04-16T07:26:19;9.93;;;9.00;;
7969;SDS011;4030;52.362;9.206;2023-04-16T07:28:45;9.27;;;8.43;;
7969;SDS011;4030;52.362;9.206;2023-04-16T07:31:11;9.35;;;8.35;;
7969;SDS011;4030;52.362;9.206;2023-04-16T07:33:37;9.55;;;8.52;;
7969;SDS011;4030;52.362;9.206;2023-04-16T07:36:03;9.55;;;8.63;;
7969;SDS011;4030;52.362;9.206;2023-04-16T07:38:29;9.75;;;8.85;;
7969;SDS011;4030;52.362;9.206;2023-04-16T07:40:55;10.57;;;9.07;;
7969;SDS011;4030;52.362;9.206;2023-04-16T07:43:21;9.13;;;8.30;;
7969;SDS011;4030;52.362;9.206;2023-04-16T07:45:47;9.38;;;8.45;;
7969;SDS011;4030;52.362;9.206;2023-04-16T07:48:13;9.93;;;8.93;;
7969;SDS011;4030;52.362;9.206;2023-04-16T07:50:39;10.10;;;9.15;;
7969;SDS011;4030;52.362;9.206;2023-04-16T07:53:07;10.88;;;8.52;;
7969;SDS011;4030;52.362;9.206;2023-04-16T07:55:33;9.85;;;8.95;;
7969;SDS011;4030;52.362;9.206;2023-04-16T07:57:59;9.93;;;9.05;;
7969;SDS011;4030;52.362;9.206;2023-04-16T08:00:25;10.38;;;9.38;;
7969;SDS011;4030;52.362;9.206;2023-04-16T08:02:50;10.77;;;8.90;;
7969;SDS011;4030;52.362;9.206;2023-04-16T08:05:16;9.30;;;8.45;;
7969;SDS011;4030;52.362;9.206;2023-04-16T08:07:42;9.27;;;8.38;;
7969;SDS011;4030;52.362;9.206;2023-04-16T08:10:07;9.85;;;8.85;;
7969;SDS011;4030;52.362;9.206;2023-04-16T08:12:34;10.20;;;9.20;;
7969;SDS011;4030;52.362;9.206;2023-04-16T08:15:00;9.65;;;8.75;;
7969;SDS011;4030;52.362;9.206;2023-04-16T08:17:26;10.30;;;9.32;;
7969;SDS011;4030;52.362;9.206;2023-04-16T08:19:53;9.88;;;8.88;;
7969;SDS011;4030;52.362;9.206;2023-04-16T08:22:19;9.35;;;8.35;;
7969;SDS011;4030;52.362;9.206;2023-04-16T08:24:44;9.80;;;8.80;;
7969;SDS011;4030;52.362;9.206;2023-04-16T08:27:10;10.20;;;9.10;;
7969;SDS011;4030;52.362;9.206;2023-04-16T08:29:36;9.05;;;8.15;;
7969;SDS011;4030;52.362;9.206;2023-04-16T08:32:02;9.65;;;8.75;;
7969;SDS011;4030;52.362;9.206;2023-04-16T08:34:28;9.55;;;8.65;;
7969;SDS011;4030;52.362;9.206;2023-04-16T08:36:54;9.57;;;8.55;;
7969;SDS011;4030;52.362;9.206;2023-04-16T08:39:20;9.65;;;8.75;;
7969;SDS011;4030;52.362;9.206;2023-04-16T08:41:46;9.93;;;9.00;;
7969;SDS011;4030;52.362;9.206;2023-04-16T08:44:14;9.77;;;8.88;;
7969;SDS011;4030;52.362;9.206;2023-04-16T08:46:53;9.02;;;8.18;;
7969;SDS011;4030;52.362;9.206;2023-04-16T08:49:23;9.23;;;8.40;;
7969;SDS011;4030;52.362;9.206;2023-04-16T08:51:52;9.55;;;8.57;;
7969;SDS011;4030;52.362;9.206;2023-04-16T08:57:12;9.05;;;8.15;;
7969;SDS011;4030;52.362;9.206;2023-04-16T08:59:46;9.55;;;8.65;;
7969;SDS011;4030;52.362;9.206;2023-04-16T09:02:12;9.35;;;8.45;;
7969;SDS011;4030;52.362;9.206;2023-04-16T09:04:40;9.05;;;8.18;;
7969;SDS011;4030;52.362;9.206;2023-04-16T09:07:07;9.50;;;8.55;;
7969;SDS011;4030;52.362;9.206;2023-04-16T09:09:33;8.48;;;7.68;;
7969;SDS011;4030;52.362;9.206;2023-04-16T09:11:59;8.00;;;7.25;;
7969;SDS011;4030;52.362;9.206;2023-04-16T09:14:25;8.80;;;7.93;;
7969;SDS011;4030;52.362;9.206;2023-04-16T09:16:52;9.05;;;8.18;;
7969;SDS011;4030;52.362;9.206;2023-04-16T09:19:21;8.77;;;7.88;;
7969;SDS011;4030;52.362;9.206;2023-04-16T09:21:48;8.88;;;8.05;;
7969;SDS011;4030;52.362;9.206;2023-04-16T09:24:14;8.75;;;7.88;;
7969;SDS011;4030;52.362;9.206;2023-04-16T09:26:40;8.82;;;8.02;;
7969;SDS011;4030;52.362;9.206;2023-04-16T09:29:08;9.55;;;8.55;;
7969;SDS011;4030;52.362;9.206;2023-04-16T09:31:34;8.43;;;7.45;;
7969;SDS011;4030;52.362;9.206;2023-04-16T09:36:33;9.95;;;8.25;;
7969;SDS011;4030;52.362;9.206;2023-04-16T09:39:00;8.82;;;7.95;;
7969;SDS011;4030;52.362;9.206;2023-04-16T09:41:30;8.70;;;7.80;;
7969;SDS011;4030;52.362;9.206;2023-04-16T09:44:00;8.52;;;7.82;;
7969;SDS011;4030;52.362;9.206;2023-04-16T09:46:29;8.80;;;8.00;;
7969;SDS011;4030;52.362;9.206;2023-04-16T09:49:03;8.90;;;8.10;;
7969;SDS011;4030;52.362;9.206;2023-04-16T09:51:37;8.50;;;7.60;;
7969;SDS011;4030;52.362;9.206;2023-04-16T09:54:05;8.73;;;7.82;;
7969;SDS011;4030;52.362;9.206;2023-04-16T09:56:31;8.65;;;7.85;;
7969;SDS011;4030;52.362;9.206;2023-04-16T09:58:58;10.50;;;9.30;;
7969;SDS011;4030;52.362;9.206;2023-04-16T10:01:24;9.63;;;8.70;;
7969;SDS011;4030;52.362;9.206;2023-04-16T10:03:52;9.32;;;8.43;;
7969;SDS011;4030;52.362;9.206;2023-04-16T10:06:20;9.95;;;8.10;;
7969;SDS011;4030;52.362;9.206;2023-04-16T10:08:48;9.00;;;8.10;;
7969;SDS011;4030;52.362;9.206;2023-04-16T10:11:15;9.23;;;8.32;;
7969;SDS011;4030;52.362;9.206;2023-04-16T10:13:42;10.90;;;8.90;;
7969;SDS011;4030;52.362;9.206;2023-04-16T10:16:08;10.48;;;9.50;;
7969;SDS011;4030;52.362;9.206;2023-04-16T10:18:35;8.60;;;7.90;;
7969;SDS011;4030;52.362;9.206;2023-04-16T10:21:04;9.65;;;8.75;;
7969;SDS011;4030;52.362;9.206;2023-04-16T10:23:31;8.73;;;7.93;;
7969;SDS011;4030;52.362;9.206;2023-04-16T10:25:57;8.40;;;7.60;;
7969;SDS011;4030;52.362;9.206;2023-04-16T10:28:25;8.77;;;7.97;;
7969;SDS011;4030;52.362;9.206;2023-04-16T10:30:53;9.15;;;8.27;;
7969;SDS011;4030;52.362;9.206;2023-04-16T10:33:21;8.50;;;7.70;;
7969;SDS011;4030;52.362;9.206;2023-04-16T10:36:05;8.38;;;7.57;;
7969;SDS011;4030;52.362;9.206;2023-04-16T10:38:40;8.73;;;7.90;;
7969;SDS011;4030;52.362;9.206;2023-04-16T10:41:10;8.80;;;8.00;;
7969;SDS011;4030;52.362;9.206;2023-04-16T10:43:42;8.65;;;7.85;;
7969;SDS011;4030;52.362;9.206;2023-04-16T10:48:53;8.63;;;7.82;;
7969;SDS011;4030;52.362;9.206;2023-04-16T10:54:40;8.45;;;7.65;;
7969;SDS011;4030;52.362;9.206;2023-04-16T10:56:41;8.43;;;7.50;;
7969;SDS011;4030;52.362;9.206;2023-04-16T10:59:09;8.63;;;7.72;;
7969;SDS011;4030;52.362;9.206;2023-04-16T11:01:38;8.90;;;8.00;;
7969;SDS011;4030;52.362;9.206;2023-04-16T11:09:59;8.43;;;7.63;;
7969;SDS011;4030;52.362;9.206;2023-04-16T11:12:38;8.27;;;7.47;;
7969;SDS011;4030;52.362;9.206;2023-04-16T11:15:12;9.10;;;8.20;;
7969;SDS011;4030;52.362;9.206;2023-04-16T11:20:23;8.60;;;7.80;;
7969;SDS011;4030;52.362;9.206;2023-04-16T11:22:51;9.02;;;8.10;;
7969;SDS011;4030;52.362;9.206;2023-04-16T11:25:23;8.40;;;7.60;;
7969;SDS011;4030;52.362;9.206;2023-04-16T11:27:51;7.93;;;7.13;;
7969;SDS011;4030;52.362;9.206;2023-04-16T11:30:18;8.55;;;7.72;;
7969;SDS011;4030;52.362;9.206;2023-04-16T11:33:03;8.32;;;7.63;;
7969;SDS011;4030;52.362;9.206;2023-04-16T11:35:33;8.85;;;7.95;;
7969;SDS011;4030;52.362;9.206;2023-04-16T11:37:59;8.77;;;7.88;;
7969;SDS011;4030;52.362;9.206;2023-04-16T11:40:28;8.80;;;7.90;;
7969;SDS011;4030;52.362;9.206;2023-04-16T11:42:55;8.60;;;7.70;;
7969;SDS011;4030;52.362;9.206;2023-04-16T11:45:40;8.35;;;7.57;;
7969;SDS011;4030;52.362;9.206;2023-04-16T11:48:25;12.13;;;8.00;;
7969;SDS011;4030;52.362;9.206;2023-04-16T11:51:10;8.95;;;8.05;;
7969;SDS011;4030;52.362;9.206;2023-04-16T11:53:43;11.20;;;8.35;;
7969;SDS011;4030;52.362;9.206;2023-04-16T11:56:14;8.75;;;7.90;;
7969;SDS011;4030;52.362;9.206;2023-04-16T11:58:41;8.50;;;7.70;;
7969;SDS011;4030;52.362;9.206;2023-04-16T12:01:07;8.18;;;7.38;;
7969;SDS011;4030;52.362;9.206;2023-04-16T12:03:38;8.05;;;7.28;;
7969;SDS011;4030;52.362;9.206;2023-04-16T12:06:10;8.45;;;7.63;;
7969;SDS011;4030;52.362;9.206;2023-04-16T12:08:36;8.20;;;7.30;;
7969;SDS011;4030;52.362;9.206;2023-04-16T12:11:02;9.40;;;7.70;;
7969;SDS011;4030;52.362;9.206;2023-04-16T12:13:28;8.20;;;7.40;;
7969;SDS011;4030;52.362;9.206;2023-04-16T12:15:55;8.07;;;7.28;;
7969;SDS011;4030;52.362;9.206;2023-04-16T12:18:24;8.80;;;7.60;;
7969;SDS011;4030;52.362;9.206;2023-04-16T12:20:53;8.00;;;7.20;;
7969;SDS011;4030;52.362;9.206;2023-04-16T12:23:25;8.02;;;7.22;;
7969;SDS011;4030;52.362;9.206;2023-04-16T12:25:54;8.15;;;7.35;;
7969;SDS011;4030;52.362;9.206;2023-04-16T12:31:00;8.23;;;7.43;;
7969;SDS011;4030;52.362;9.206;2023-04-16T12:33:27;8.90;;;8.00;;
7969;SDS011;4030;52.362;9.206;2023-04-16T12:35:53;8.32;;;7.47;;
7969;SDS011;4030;52.362;9.206;2023-04-16T12:38:19;8.48;;;7.63;;
7969;SDS011;4030;52.362;9.206;2023-04-16T12:40:45;8.55;;;7.65;;
7969;SDS011;4030;52.362;9.206;2023-04-16T12:43:11;7.80;;;7.03;;
7969;SDS011;4030;52.362;9.206;2023-04-16T12:45:37;9.30;;;7.55;;
7969;SDS011;4030;52.362;9.206;2023-04-16T12:48:04;7.95;;;7.13;;
7969;SDS011;4030;52.362;9.206;2023-04-16T12:50:30;8.55;;;7.65;;
7969;SDS011;4030;52.362;9.206;2023-04-16T12:52:56;8.77;;;7.88;;
7969;SDS011;4030;52.362;9.206;2023-04-16T12:55:23;8.45;;;7.55;;
7969;SDS011;4030;52.362;9.206;2023-04-16T12:57:49;8.43;;;7.60;;
7969;SDS011;4030;52.362;9.206;2023-04-16T13:00:17;9.02;;;7.40;;
7969;SDS011;4030;52.362;9.206;2023-04-16T13:02:43;8.10;;;7.30;;
7969;SDS011;4030;52.362;9.206;2023-04-16T13:05:09;8.73;;;7.82;;
7969;SDS011;4030;52.362;9.206;2023-04-16T13:07:36;8.57;;;7.72;;
7969;SDS011;4030;52.362;9.206;2023-04-16T13:10:04;8.60;;;7.80;;
7969;SDS011;4030;52.362;9.206;2023-04-16T13:12:30;8.60;;;7.70;;
7969;SDS011;4030;52.362;9.206;2023-04-16T13:14:56;7.97;;;7.28;;
7969;SDS011;4030;52.362;9.206;2023-04-16T13:17:22;9.48;;;7.60;;
7969;SDS011;4030;52.362;9.206;2023-04-16T13:19:48;9.18;;;7.95;;
7969;SDS011;4030;52.362;9.206;2023-04-16T13:22:13;8.93;;;7.57;;
7969;SDS011;4030;52.362;9.206;2023-04-16T13:24:40;8.35;;;7.43;;
7969;SDS011;4030;52.362;9.206;2023-04-16T13:27:05;8.02;;;7.18;;
7969;SDS011;4030;52.362;9.206;2023-04-16T13:29:32;7.60;;;6.90;;
7969;SDS011;4030;52.362;9.206;2023-04-16T13:32:00;7.88;;;7.18;;
7969;SDS011;4030;52.362;9.206;2023-04-16T13:34:26;9.05;;;7.07;;
7969;SDS011;4030;52.362;9.206;2023-04-16T13:36:52;9.35;;;7.22;;
7969;SDS011;4030;52.362;9.206;2023-04-16T13:39:18;7.82;;;7.13;;
7969;SDS011;4030;52.362;9.206;2023-04-16T13:41:45;8.13;;;7.25;;
7969;SDS011;4030;52.362;9.206;2023-04-16T13:44:12;7.25;;;6.55;;
7969;SDS011;4030;52.362;9.206;2023-04-16T13:46:38;7.95;;;7.15;;
7969;SDS011;4030;52.362;9.206;2023-04-16T13:49:07;7.30;;;6.63;;
7969;SDS011;4030;52.362;9.206;2023-04-16T13:51:33;7.15;;;6.45;;
7969;SDS011;4030;52.362;9.206;2023-04-16T13:53:58;7.40;;;6.70;;
7969;SDS011;4030;52.362;9.206;2023-04-16T13:56:24;6.88;;;6.28;;
7969;SDS011;4030;52.362;9.206;2023-04-16T13:58:50;7.53;;;6.65;;
7969;SDS011;4030;52.362;9.206;2023-04-16T14:01:16;6.75;;;6.05;;
7969;SDS011;4030;52.362;9.206;2023-04-16T14:03:42;7.40;;;6.70;;
7969;SDS011;4030;52.362;9.206;2023-04-16T14:06:07;6.70;;;6.03;;
7969;SDS011;4030;52.362;9.206;2023-04-16T14:08:33;8.07;;;6.32;;
7969;SDS011;4030;52.362;9.206;2023-04-16T14:10:59;7.72;;;7.00;;
7969;SDS011;4030;52.362;9.206;2023-04-16T14:13:26;7.40;;;6.72;;
7969;SDS011;4030;52.362;9.206;2023-04-16T14:15:52;7.47;;;6.78;;
7969;SDS011;4030;52.362;9.206;2023-04-16T14:18:18;7.30;;;6.60;;
7969;SDS011;4030;52.362;9.206;2023-04-16T14:20:44;7.53;;;6.82;;
7969;SDS011;4030;52.362;9.206;2023-04-16T14:23:10;6.78;;;6.18;;
7969;SDS011;4030;52.362;9.206;2023-04-16T14:25:36;6.82;;;6.13;;
7969;SDS011;4030;52.362;9.206;2023-04-16T14:28:02;7.32;;;6.72;;
7969;SDS011;4030;52.362;9.206;2023-04-16T14:30:28;7.55;;;6.60;;
7969;SDS011;4030;52.362;9.206;2023-04-16T14:32:53;7.30;;;6.60;;
7969;SDS011;4030;52.362;9.206;2023-04-16T14:35:19;7.45;;;6.75;;
7969;SDS011;4030;52.362;9.206;2023-04-16T14:37:46;6.63;;;6.03;;
7969;SDS011;4030;52.362;9.206;2023-04-16T14:40:12;6.55;;;5.95;;
7969;SDS011;4030;52.362;9.206;2023-04-16T14:42:38;8.43;;;6.45;;
7969;SDS011;4030;52.362;9.206;2023-04-16T14:45:04;7.68;;;6.90;;
7969;SDS011;4030;52.362;9.206;2023-04-16T14:47:31;7.00;;;6.30;;
7969;SDS011;4030;52.362;9.206;2023-04-16T14:49:58;7.38;;;6.35;;
7969;SDS011;4030;52.362;9.206;2023-04-16T14:52:24;6.57;;;5.97;;
7969;SDS011;4030;52.362;9.206;2023-04-16T14:54:51;7.22;;;6.53;;
7969;SDS011;4030;52.362;9.206;2023-04-16T14:57:19;7.78;;;6.18;;
7969;SDS011;4030;52.362;9.206;2023-04-16T14:59:45;6.95;;;6.25;;
7969;SDS011;4030;52.362;9.206;2023-04-16T15:02:12;7.50;;;6.70;;
7969;SDS011;4030;52.362;9.206;2023-04-16T15:04:38;7.20;;;6.50;;
7969;SDS011;4030;52.362;9.206;2023-04-16T15:07:04;7.22;;;6.53;;
7969;SDS011;4030;52.362;9.206;2023-04-16T15:09:29;7.47;;;6.78;;
7969;SDS011;4030;52.362;9.206;2023-04-16T15:11:56;7.00;;;6.32;;
7969;SDS011;4030;52.362;9.206;2023-04-16T15:14:22;8.35;;;6.28;;
7969;SDS011;4030;52.362;9.206;2023-04-16T15:16:47;7.80;;;6.43;;
7969;SDS011;4030;52.362;9.206;2023-04-16T15:19:13;7.10;;;6.40;;
7969;SDS011;4030;52.362;9.206;2023-04-16T15:21:39;7.30;;;6.60;;
7969;SDS011;4030;52.362;9.206;2023-04-16T15:24:05;6.55;;;5.93;;
7969;SDS011;4030;52.362;9.206;2023-04-16T15:26:31;6.55;;;5.95;;
7969;SDS011;4030;52.362;9.206;2023-04-16T15:28:57;7.72;;;6.85;;